Time;durP1;ratioP1;P1;durP2;ratioP2;P2;SDS_P1;SDS_P2;PMS_P1;PMS_P2;Temp;Humidity;BMP_temperature;BMP_pressure;BME280_temperature;BME280_humidity;BME280_pressure;Samples;Min_cycle;Max_cycle;Signal;HPM_P1;HPM_P2
2021/01/21 00:02:10;;;;;;;55.35;39.30;;;77.20;2201.60;;;;;;4841443;29;20049;-77
2021/01/21 00:04:36;;;;;;;55.17;40.33;;;77.20;2176.00;;;;;;4842085;29;20129;-77
2021/01/21 00:07:02;;;;;;;58.25;41.50;;;77.20;2201.60;;;;;;4842482;29;20064;-78
2021/01/21 00:09:28;;;;;;;61.95;44.65;;;77.20;2201.60;;;;;;4842119;29;20057;-78
2021/01/21 00:11:54;;;;;;;60.10;43.08;;;77.10;2176.00;;;;;;4842738;29;20395;-78
2021/01/21 00:14:20;;;;;;;68.70;45.70;;;77.10;2201.60;;;;;;4839139;29;20037;-77
2021/01/21 00:16:45;;;;;;;67.03;43.72;;;77.10;2201.60;;;;;;4841790;29;20524;-78
2021/01/21 00:19:11;;;;;;;76.75;47.67;;;77.10;2176.00;;;;;;4841812;29;20086;-78
2021/01/21 00:21:37;;;;;;;72.75;46.90;;;77.10;2201.60;;;;;;4841817;29;20066;-77
2021/01/21 00:24:03;;;;;;;70.60;47.78;;;52.10;2201.60;;;;;;4842201;29;20455;-77
2021/01/21 00:26:28;;;;;;;70.43;48.85;;;77.00;2201.60;;;;;;4840711;29;20133;-77
2021/01/21 00:28:54;;;;;;;74.95;48.30;;;77.00;2201.60;;;;;;4841141;29;20455;-77
2021/01/21 00:31:21;;;;;;;65.45;47.78;;;77.00;2201.60;;;;;;4842296;29;20090;-77
2021/01/21 00:33:46;;;;;;;73.72;48.70;;;77.00;2201.60;;;;;;4842660;29;20022;-77
2021/01/21 00:36:13;;;;;;;65.72;43.25;;;77.00;2201.60;;;;;;4842319;29;20375;-77
2021/01/21 00:38:39;;;;;;;63.47;45.08;;;77.00;2201.60;;;;;;4842425;29;20062;-79
2021/01/21 00:41:05;;;;;;;62.65;42.28;;;77.00;2201.60;;;;;;4840593;29;20271;-78
2021/01/21 00:43:31;;;;;;;63.05;43.50;;;77.00;2201.60;;;;;;4842407;29;20122;-79
2021/01/21 00:45:57;;;;;;;66.10;45.78;;;77.10;2201.60;;;;;;4831276;29;20038;-79
2021/01/21 00:48:23;;;;;;;62.25;44.25;;;77.10;2201.60;;;;;;4832037;29;20038;-79
2021/01/21 00:50:49;;;;;;;65.72;44.47;;;77.10;2201.60;;;;;;4840999;29;20111;-79
2021/01/21 00:53:15;;;;;;;59.67;40.80;;;77.10;2201.60;;;;;;4841980;29;20058;-79
2021/01/21 00:55:41;;;;;;;69.45;46.95;;;77.00;2201.60;;;;;;4841169;29;20041;-79
2021/01/21 00:58:07;;;;;;;72.82;47.53;;;77.00;2201.60;;;;;;4840277;29;20041;-79
2021/01/21 01:00:33;;;;;;;75.72;46.45;;;77.10;2201.60;;;;;;4841037;29;20034;-78
2021/01/21 01:02:58;;;;;;;77.65;51.38;;;77.00;2201.60;;;;;;4840497;29;20144;-79
2021/01/21 01:05:24;;;;;;;65.97;43.20;;;77.10;2201.60;;;;;;4842286;29;20058;-79
2021/01/21 01:07:50;;;;;;;68.57;46.03;;;77.10;2201.60;;;;;;4840596;29;20128;-79
2021/01/21 01:10:16;;;;;;;72.38;50.08;;;77.10;2201.60;;;;;;4842404;29;20030;-79
2021/01/21 01:12:41;;;;;;;82.13;52.10;;;77.10;2201.60;;;;;;4841804;29;20033;-79
2021/01/21 01:15:09;;;;;;;87.50;51.63;;;77.10;2201.60;;;;;;4840659;29;20034;-78
2021/01/21 01:17:35;;;;;;;95.10;55.45;;;77.00;2201.60;;;;;;4840777;29;20038;-79
2021/01/21 01:20:01;;;;;;;76.13;51.50;;;77.00;2201.60;;;;;;4843488;29;20042;-79
2021/01/21 01:22:26;;;;;;;70.03;48.33;;;77.00;2227.20;;;;;;4844899;29;20037;-79
2021/01/21 01:24:52;;;;;;;66.45;43.53;;;77.00;2201.60;;;;;;4845414;29;20146;-79
2021/01/21 01:27:18;;;;;;;73.63;46.97;;;77.00;2201.60;;;;;;4844737;29;20121;-79
2021/01/21 01:29:47;;;;;;;71.00;45.22;;;77.00;2227.20;;;;;;4843816;29;20033;-79
2021/01/21 01:32:12;;;;;;;66.55;42.63;;;77.00;2201.60;;;;;;4845565;29;20537;-79
2021/01/21 01:34:38;;;;;;;69.90;48.00;;;77.00;2201.60;;;;;;4844258;29;20037;-79
2021/01/21 01:37:04;;;;;;;68.75;47.47;;;77.00;2201.60;;;;;;4844855;29;20180;-79
2021/01/21 01:39:31;;;;;;;72.32;50.35;;;77.00;2201.60;;;;;;4845673;29;20117;-79
2021/01/21 01:41:57;;;;;;;65.60;46.85;;;77.00;2201.60;;;;;;4845279;29;20383;-79
2021/01/21 01:44:25;;;;;;;72.60;46.60;;;77.00;2201.60;;;;;;4844522;29;20037;-79
2021/01/21 01:46:51;;;;;;;67.28;42.92;;;76.90;2227.20;;;;;;4845251;29;20375;-80
2021/01/21 01:49:18;;;;;;;68.88;43.47;;;77.00;2201.60;;;;;;4844501;29;20478;-79
2021/01/21 01:51:45;;;;;;;69.57;44.03;;;77.00;2201.60;;;;;;4843664;29;20124;-79
2021/01/21 01:54:11;;;;;;;71.90;44.10;;;77.00;2201.60;;;;;;4844819;29;20393;-80
2021/01/21 01:56:37;;;;;;;78.38;51.00;;;77.00;2201.60;;;;;;4844157;29;20037;-79
2021/01/21 01:59:04;;;;;;;70.97;46.88;;;77.00;2227.20;;;;;;4845913;29;20022;-79
2021/01/21 02:01:30;;;;;;;84.15;52.33;;;77.00;2227.20;;;;;;4843887;29;20030;-79
2021/01/21 02:03:56;;;;;;;78.50;48.25;;;77.00;2227.20;;;;;;4844825;29;20478;-79
2021/01/21 02:06:22;;;;;;;68.70;46.38;;;77.00;2227.20;;;;;;4844882;29;20057;-79
2021/01/21 02:08:48;;;;;;;69.05;46.13;;;77.00;2227.20;;;;;;4845596;29;20077;-79
2021/01/21 02:11:30;;;;;;;71.20;45.85;;;77.00;2227.20;;;;;;4846372;29;20079;-80
2021/01/21 02:14:14;;;;;;;71.95;44.50;;;77.00;2227.20;;;;;;4842481;29;20034;-79
2021/01/21 02:17:05;;;;;;;68.60;44.85;;;77.00;2227.20;;;;;;4840211;29;20495;-79
2021/01/21 02:19:39;;;;;;;75.93;45.13;;;77.00;2227.20;;;;;;4843089;29;20367;-80
2021/01/21 02:22:23;;;;;;;63.72;44.25;;;77.10;2227.20;;;;;;4844082;29;20036;-79
2021/01/21 02:25:13;;;;;;;60.75;39.20;;;77.00;2227.20;;;;;;4842572;29;20037;-79
2021/01/21 02:28:09;;;;;;;52.17;36.13;;;77.00;2227.20;;;;;;4842493;29;20037;-77
2021/01/21 02:30:53;;;;;;;62.10;41.55;;;77.00;2227.20;;;;;;4842690;29;20022;-77
2021/01/21 02:33:40;;;;;;;59.65;39.88;;;77.00;2227.20;;;;;;4844080;29;20082;-78
2021/01/21 02:36:12;;;;;;;57.90;40.45;;;77.00;2227.20;;;;;;4842164;29;20490;-77
2021/01/21 02:38:40;;;;;;;57.55;38.00;;;77.00;2201.60;;;;;;4842360;29;20383;-78
2021/01/21 02:41:06;;;;;;;60.00;40.00;;;77.10;2201.60;;;;;;4842528;29;20490;-78
2021/01/21 02:43:32;;;;;;;62.92;41.40;;;77.00;2201.60;;;;;;4842151;29;20478;-78
2021/01/21 02:45:58;;;;;;;59.72;40.35;;;77.00;2227.20;;;;;;4842778;29;20041;-78
2021/01/21 02:48:23;;;;;;;65.95;41.60;;;77.10;2227.20;;;;;;4843553;29;20042;-77
2021/01/21 02:50:58;;;;;;;51.15;36.85;;;77.10;2201.60;;;;;;4842655;29;20490;-78
2021/01/21 02:53:25;;;;;;;52.92;36.55;;;77.10;2201.60;;;;;;4841767;29;20128;-78
2021/01/21 02:56:01;;;;;;;59.55;38.90;;;77.10;2201.60;;;;;;4842602;29;20078;-78
2021/01/21 02:58:35;;;;;;;57.42;38.15;;;77.10;2201.60;;;;;;4844227;29;20041;-79
2021/01/21 03:01:02;;;;;;;59.72;39.13;;;77.10;2201.60;;;;;;4842242;29;20074;-80
2021/01/21 03:03:29;;;;;;;58.22;36.97;;;77.10;2201.60;;;;;;4842456;29;20481;-79
2021/01/21 03:06:01;;;;;;;60.63;40.78;;;77.10;2201.60;;;;;;4826996;29;20570;-79
2021/01/21 03:08:28;;;;;;;52.20;37.45;;;77.10;2201.60;;;;;;4843912;29;20056;-79
2021/01/21 03:11:10;;;;;;;57.75;37.50;;;77.00;2201.60;;;;;;4842164;29;20383;-78
2021/01/21 03:13:44;;;;;;;57.47;41.97;;;77.00;2227.20;;;;;;4843397;29;20051;-79
2021/01/21 03:16:10;;;;;;;64.00;40.03;;;77.00;2227.20;;;;;;4842339;29;20460;-79
2021/01/21 03:18:36;;;;;;;61.72;38.70;;;77.00;2227.20;;;;;;4841592;29;20033;-79
2021/01/21 03:21:02;;;;;;;61.40;40.53;;;76.90;2227.20;;;;;;4843454;29;20041;-79
2021/01/21 03:23:27;;;;;;;59.38;44.63;;;76.90;2227.20;;;;;;4842971;29;20057;-79
2021/01/21 03:25:54;;;;;;;67.72;46.42;;;76.90;2227.20;;;;;;4841499;29;20038;-78
2021/01/21 03:28:19;;;;;;;68.13;45.65;;;76.80;2227.20;;;;;;4842107;29;20034;-79
2021/01/21 03:30:45;;;;;;;79.13;50.00;;;76.80;2227.20;;;;;;4841463;29;20599;-79
2021/01/21 03:33:11;;;;;;;75.10;48.97;;;76.80;2227.20;;;;;;4843190;29;20053;-79
2021/01/21 03:35:36;;;;;;;66.88;44.63;;;52.10;2227.20;;;;;;4842705;29;20034;-79
2021/01/21 03:38:02;;;;;;;68.05;42.83;;;52.00;2227.20;;;;;;4842203;29;20038;-79
2021/01/21 03:40:28;;;;;;;65.65;40.67;;;52.00;2227.20;;;;;;4841409;29;20034;-80
2021/01/21 03:42:54;;;;;;;62.05;40.83;;;52.00;2227.20;;;;;;4842398;29;20094;-79
2021/01/21 03:45:20;;;;;;;52.25;35.22;;;52.10;2227.20;;;;;;4841138;29;20038;-79
2021/01/21 03:47:46;;;;;;;48.67;34.03;;;52.10;2227.20;;;;;;4841498;29;20041;-79
2021/01/21 03:50:12;;;;;;;50.53;34.58;;;52.10;2227.20;;;;;;4840901;29;20026;-79
2021/01/21 03:52:38;;;;;;;55.53;36.28;;;76.80;2227.20;;;;;;4840029;29;20038;-79
2021/01/21 03:55:04;;;;;;;50.75;33.92;;;76.80;2227.20;;;;;;4842803;29;20377;-80
2021/01/21 03:57:29;;;;;;;43.38;31.95;;;52.10;2227.20;;;;;;4840570;29;20042;-80
2021/01/21 03:59:55;;;;;;;47.42;34.13;;;76.80;2227.20;;;;;;4842786;29;20037;-80
2021/01/21 04:02:21;;;;;;;45.67;32.05;;;76.80;2227.20;;;;;;4840688;29;20041;-79
2021/01/21 04:04:46;;;;;;;46.30;31.67;;;76.80;2227.20;;;;;;4841378;29;20046;-79
2021/01/21 04:07:12;;;;;;;46.45;31.80;;;76.80;2227.20;;;;;;4840426;29;20500;-79
2021/01/21 04:09:38;;;;;;;42.17;32.45;;;76.90;2227.20;;;;;;4839691;29;20041;-79
2021/01/21 04:12:04;;;;;;;49.88;29.17;;;76.90;2227.20;;;;;;4840760;29;20038;-79
2021/01/21 04:14:29;;;;;;;48.63;28.88;;;76.90;2227.20;;;;;;4842398;29;20036;-79
2021/01/21 04:16:55;;;;;;;40.25;28.65;;;76.90;2227.20;;;;;;4842106;29;20406;-80
2021/01/21 04:19:21;;;;;;;41.25;27.55;;;77.00;2227.20;;;;;;4841266;29;20034;-80
2021/01/21 04:21:47;;;;;;;37.22;27.42;;;77.00;2227.20;;;;;;4840983;29;20030;-79
2021/01/21 04:24:13;;;;;;;42.00;28.85;;;77.00;2227.20;;;;;;4840383;29;20026;-79
2021/01/21 04:26:38;;;;;;;41.92;29.33;;;77.10;2227.20;;;;;;4841232;29;20120;-80
2021/01/21 04:29:04;;;;;;;38.78;27.50;;;77.10;2227.20;;;;;;4841908;29;20041;-78
2021/01/21 04:31:30;;;;;;;40.13;28.65;;;77.10;2201.60;;;;;;4841454;29;20034;-78
2021/01/21 04:33:55;;;;;;;39.38;28.88;;;77.10;2201.60;;;;;;4841986;29;20038;-78
2021/01/21 04:36:21;;;;;;;35.58;27.75;;;77.20;2201.60;;;;;;4841223;29;20390;-78
2021/01/21 04:38:47;;;;;;;44.28;30.17;;;77.10;2201.60;;;;;;4840754;29;20151;-78
2021/01/21 04:41:13;;;;;;;43.33;31.30;;;77.20;2201.60;;;;;;4840977;29;20133;-78
2021/01/21 04:43:39;;;;;;;40.38;28.58;;;77.20;2201.60;;;;;;4841588;29;20037;-78
2021/01/21 04:46:10;;;;;;;40.83;30.00;;;77.20;2201.60;;;;;;4841234;29;20034;-78
2021/01/21 04:48:37;;;;;;;37.30;28.38;;;77.20;2201.60;;;;;;4842020;29;20041;-78
2021/01/21 04:51:04;;;;;;;38.40;29.17;;;77.20;2201.60;;;;;;4840870;29;20439;-77
2021/01/21 04:53:31;;;;;;;38.88;30.67;;;77.10;2227.20;;;;;;4840248;29;20026;-78
2021/01/21 04:56:00;;;;;;;40.72;31.23;;;77.10;2227.20;;;;;;4840309;29;20034;-78
2021/01/21 04:58:37;;;;;;;38.50;27.75;;;77.10;2227.20;;;;;;4842227;29;20507;-78
2021/01/21 05:01:03;;;;;;;41.95;28.25;;;77.10;2227.20;;;;;;4840326;29;20034;-78
2021/01/21 05:03:29;;;;;;;42.20;30.52;;;77.10;2227.20;;;;;;4840090;29;20025;-78
2021/01/21 05:05:56;;;;;;;46.78;30.58;;;77.10;2227.20;;;;;;4840260;29;20420;-78
2021/01/21 05:08:23;;;;;;;43.97;31.60;;;77.20;2227.20;;;;;;4841905;29;20056;-79
2021/01/21 05:10:50;;;;;;;42.85;28.02;;;77.10;2227.20;;;;;;4840869;29;20087;-78
2021/01/21 05:13:17;;;;;;;40.33;27.25;;;77.20;2227.20;;;;;;4840484;29;20406;-78
2021/01/21 05:15:42;;;;;;;34.90;25.98;;;77.20;2201.60;;;;;;4842023;29;20034;-78
2021/01/21 05:18:10;;;;;;;30.90;22.65;;;77.30;2201.60;;;;;;4839808;29;20049;-78
2021/01/21 05:20:35;;;;;;;36.75;24.83;;;77.30;2201.60;;;;;;4842001;29;20037;-78
2021/01/21 05:23:04;;;;;;;31.33;24.98;;;77.40;2201.60;;;;;;4841754;29;20026;-79
2021/01/21 05:25:30;;;;;;;35.08;25.08;;;77.40;2201.60;;;;;;4840916;29;20497;-79
2021/01/21 05:28:03;;;;;;;36.80;24.50;;;77.40;2176.00;;;;;;4841525;29;20124;-80
2021/01/21 05:30:30;;;;;;;31.52;23.17;;;77.50;2176.00;;;;;;4842114;29;20475;-81
2021/01/21 05:32:58;;;;;;;29.65;22.42;;;77.50;2176.00;;;;;;4842026;29;20052;-79
2021/01/21 05:35:24;;;;;;;34.28;23.05;;;77.50;2176.00;;;;;;4840145;29;20030;-79
2021/01/21 05:37:56;;;;;;;45.65;30.15;;;77.50;2176.00;;;;;;4841666;29;20121;-80
2021/01/21 05:40:29;;;;;;;41.33;29.25;;;77.50;2176.00;;;;;;4840642;29;20026;-80
2021/01/21 05:42:57;;;;;;;42.90;31.00;;;77.60;2176.00;;;;;;4841684;29;20037;-79
2021/01/21 05:45:24;;;;;;;39.13;28.33;;;77.60;2176.00;;;;;;4841534;29;20030;-80
2021/01/21 05:47:57;;;;;;;32.50;24.75;;;77.50;2176.00;;;;;;4841285;29;20041;-80
2021/01/21 05:50:25;;;;;;;33.10;24.55;;;77.60;2176.00;;;;;;4841347;29;20033;-80
2021/01/21 05:52:51;;;;;;;38.25;26.27;;;77.60;2176.00;;;;;;4841966;29;20110;-79
2021/01/21 05:55:24;;;;;;;43.10;28.45;;;77.70;2176.00;;;;;;4841983;29;20096;-79
2021/01/21 05:57:51;;;;;;;38.42;26.58;;;77.50;2176.00;;;;;;4840142;29;20041;-80
2021/01/21 06:00:17;;;;;;;39.17;26.15;;;77.50;2176.00;;;;;;4841873;29;20033;-79
2021/01/21 06:02:44;;;;;;;39.65;28.35;;;77.50;2176.00;;;;;;4840771;29;20038;-80
2021/01/21 06:05:17;;;;;;;37.92;26.23;;;77.50;2176.00;;;;;;4840779;29;20049;-79
2021/01/21 06:07:43;;;;;;;40.05;26.85;;;77.50;2176.00;;;;;;4844851;29;20453;-79
2021/01/21 06:10:09;;;;;;;34.05;25.30;;;77.50;2176.00;;;;;;4844409;29;20054;-80
2021/01/21 06:12:36;;;;;;;32.78;23.38;;;77.50;2176.00;;;;;;4845775;29;20367;-79
2021/01/21 06:15:02;;;;;;;32.40;23.90;;;77.50;2176.00;;;;;;4843746;29;20490;-79
2021/01/21 06:17:29;;;;;;;28.05;19.92;;;77.50;2176.00;;;;;;4844099;29;20513;-79
2021/01/21 06:19:54;;;;;;;29.77;21.58;;;77.50;2176.00;;;;;;4843883;29;20046;-79
2021/01/21 06:22:23;;;;;;;29.10;21.85;;;77.50;2176.00;;;;;;4844943;29;20041;-78
2021/01/21 06:24:51;;;;;;;23.80;19.50;;;77.50;2176.00;;;;;;4844220;29;20068;-79
2021/01/21 06:27:18;;;;;;;30.40;20.48;;;77.50;2176.00;;;;;;4844805;29;20034;-79
2021/01/21 06:29:49;;;;;;;28.05;19.63;;;77.60;2176.00;;;;;;4845290;29;20034;-79
2021/01/21 06:32:17;;;;;;;29.05;20.83;;;77.60;2176.00;;;;;;4843999;29;20121;-80
2021/01/21 06:34:43;;;;;;;26.13;19.75;;;77.60;2176.00;;;;;;4844362;29;20115;-79
2021/01/21 06:37:18;;;;;;;28.27;20.48;;;77.70;2150.40;;;;;;4843728;29;20371;-79
2021/01/21 06:40:02;;;;;;;29.05;21.48;;;77.70;2150.40;;;;;;4845777;29;20035;-79
2021/01/21 06:42:37;;;;;;;27.27;19.55;;;77.70;2150.40;;;;;;4846387;29;20034;-79
2021/01/21 06:45:05;;;;;;;31.20;21.50;;;77.70;2150.40;;;;;;4842224;29;20038;-79
2021/01/21 06:47:31;;;;;;;32.38;22.60;;;102.40;2150.40;;;;;;4843322;29;20420;-79
2021/01/21 06:49:59;;;;;;;31.25;22.13;;;102.40;2150.40;;;;;;4842904;29;20491;-80
2021/01/21 06:52:37;;;;;;;30.45;20.60;;;102.40;2150.40;;;;;;4843632;29;20022;-79
2021/01/21 06:55:08;;;;;;;25.67;19.65;;;102.50;2150.40;;;;;;4842811;29;20089;-79
2021/01/21 06:57:34;;;;;;;27.55;19.35;;;102.50;2150.40;;;;;;4842211;29;20045;-79
2021/01/21 07:00:10;;;;;;;27.73;20.88;;;102.50;2124.80;;;;;;4844002;29;20039;-79
2021/01/21 07:02:52;;;;;;;27.52;20.63;;;102.60;2124.80;;;;;;4842861;29;20066;-79
2021/01/21 07:05:20;;;;;;;25.65;19.48;;;102.60;2124.80;;;;;;4841907;29;20050;-79
2021/01/21 07:07:56;;;;;;;27.13;19.10;;;102.70;2124.80;;;;;;4843783;29;20030;-79
2021/01/21 07:10:37;;;;;;;24.40;18.55;;;102.70;2124.80;;;;;;4843982;29;20472;-79
2021/01/21 07:13:08;;;;;;;29.08;20.25;;;102.80;2099.20;;;;;;4841961;29;20030;-80
2021/01/21 07:15:35;;;;;;;24.35;19.00;;;102.80;2099.20;;;;;;4842246;29;20029;-79
2021/01/21 07:18:05;;;;;;;24.88;18.13;;;102.90;2099.20;;;;;;4841224;29;20037;-79
2021/01/21 07:20:35;;;;;;;29.65;20.92;;;102.90;2099.20;;;;;;4843119;29;20030;-79
2021/01/21 07:23:07;;;;;;;25.70;19.17;;;102.90;2099.20;;;;;;4842308;29;20494;-79
2021/01/21 07:25:34;;;;;;;34.85;22.00;;;103.00;2073.60;;;;;;4843187;29;20044;-78
2021/01/21 07:28:10;;;;;;;27.90;21.52;;;103.10;2073.60;;;;;;4842453;29;20046;-79
2021/01/21 07:30:39;;;;;;;33.53;22.00;;;103.10;2073.60;;;;;;4842043;29;20037;-80
2021/01/21 07:33:26;;;;;;;31.80;20.42;;;103.20;2073.60;;;;;;4841724;29;20030;-80
2021/01/21 07:35:52;;;;;;;29.65;20.55;;;103.20;2073.60;;;;;;4826404;29;20031;-81
2021/01/21 07:38:44;;;;;;;33.08;23.85;;;103.30;2048.00;;;;;;4824891;29;20094;-80
2021/01/21 07:41:09;;;;;;;32.97;23.08;;;103.30;2048.00;;;;;;4838899;29;20125;-81
2021/01/21 07:43:55;;;;;;;30.83;22.13;;;103.30;2048.00;;;;;;4842876;29;20468;-80
2021/01/21 07:46:27;;;;;;;34.95;24.13;;;103.30;2048.00;;;;;;4843011;29;20497;-80
2021/01/21 07:49:27;;;;;;;27.67;20.75;;;103.30;2048.00;;;;;;4843191;29;20481;-80
2021/01/21 07:52:03;;;;;;;35.45;25.10;;;103.30;2048.00;;;;;;4843947;29;20026;-82
2021/01/21 07:54:30;;;;;;;32.88;23.85;;;103.30;2048.00;;;;;;4843612;29;20042;-81
2021/01/21 07:56:56;;;;;;;31.42;21.85;;;103.30;2048.00;;;;;;4844171;29;20599;-81
2021/01/21 07:59:22;;;;;;;30.48;21.75;;;128.00;2073.60;;;;;;4843571;29;20074;-81
2021/01/21 08:01:58;;;;;;;26.52;19.65;;;128.00;2073.60;;;;;;4842927;29;20121;-80
2021/01/21 08:04:24;;;;;;;26.55;19.42;;;128.10;2048.00;;;;;;4840294;29;20031;-81
2021/01/21 08:06:54;;;;;;;34.50;24.23;;;128.10;2048.00;;;;;;4824359;29;20038;-80
2021/01/21 08:09:21;;;;;;;26.08;21.20;;;128.20;2048.00;;;;;;4825274;29;20493;-80
2021/01/21 08:11:48;;;;;;;28.02;20.27;;;128.20;2048.00;;;;;;4824891;29;20038;-80
2021/01/21 08:14:16;;;;;;;29.42;20.65;;;128.20;2048.00;;;;;;4824703;29;20411;-80
2021/01/21 08:16:41;;;;;;;29.20;20.52;;;128.30;2048.00;;;;;;4825878;29;20027;-78
2021/01/21 08:19:08;;;;;;;32.45;19.80;;;128.40;2022.40;;;;;;4826720;29;20088;-80
2021/01/21 08:21:33;;;;;;;26.80;19.58;;;128.40;2022.40;;;;;;4842263;29;20105;-79
2021/01/21 08:24:06;;;;;;;30.45;20.70;;;128.50;1996.80;;;;;;4840943;29;20170;-80
2021/01/21 08:26:33;;;;;;;31.13;21.40;;;128.60;2022.40;;;;;;4843038;29;20402;-80
2021/01/21 08:28:59;;;;;;;25.63;18.13;;;128.70;2022.40;;;;;;4842565;29;20524;-80
2021/01/21 08:31:40;;;;;;;23.88;18.02;;;128.80;1996.80;;;;;;4842244;29;20034;-79
2021/01/21 08:34:10;;;;;;;24.85;17.67;;;128.90;1971.20;;;;;;4842127;29;20025;-79
2021/01/21 08:36:36;;;;;;;26.83;18.05;;;153.60;1971.20;;;;;;4842854;29;20719;-81
2021/01/21 08:39:04;;;;;;;31.73;20.60;;;153.70;1971.20;;;;;;4842750;29;20061;-79
2021/01/21 08:41:31;;;;;;;28.60;18.33;;;153.90;1971.20;;;;;;4840998;29;20026;-80
2021/01/21 08:44:00;;;;;;;29.70;19.80;;;154.00;1971.20;;;;;;4842349;29;20034;-80
2021/01/21 08:46:27;;;;;;;29.13;20.67;;;154.10;1945.60;;;;;;4842498;29;20117;-80
2021/01/21 08:48:52;;;;;;;27.02;18.90;;;154.20;1945.60;;;;;;4843294;29;20034;-80
2021/01/21 08:51:37;;;;;;;32.72;21.10;;;154.40;1945.60;;;;;;4842677;29;20387;-80
2021/01/21 08:54:13;;;;;;;28.63;20.70;;;179.20;1920.00;;;;;;4841701;29;20026;-81
2021/01/21 08:56:39;;;;;;;39.45;26.20;;;179.30;1894.40;;;;;;4841842;29;20029;-80
2021/01/21 08:59:24;;;;;;;33.97;24.08;;;179.50;1894.40;;;;;;4843681;29;20041;-79
2021/01/21 09:01:50;;;;;;;30.25;21.25;;;179.70;1868.80;;;;;;4842829;29;20390;-82
2021/01/21 09:04:30;;;;;;;27.75;19.83;;;179.90;1843.20;;;;;;4841819;29;20046;-80
2021/01/21 09:06:58;;;;;;;32.42;22.02;;;204.80;1817.60;;;;;;4841760;29;20064;-79
2021/01/21 09:09:32;;;;;;;32.85;22.55;;;204.90;1817.60;;;;;;4842117;29;20037;-79
2021/01/21 09:12:15;;;;;;;33.92;20.38;;;205.00;1792.00;;;;;;4842946;29;20034;-81
2021/01/21 09:14:42;;;;;;;40.80;20.85;;;205.20;1766.40;;;;;;4845255;29;20482;-83
2021/01/21 09:17:17;;;;;;;30.75;20.80;;;205.30;1740.80;;;;;;4843785;29;20134;-81
2021/01/21 09:19:45;;;;;;;29.70;19.77;;;205.50;1740.80;;;;;;4844616;29;20026;-81
2021/01/21 09:22:14;;;;;;;39.10;22.77;;;205.50;1715.20;;;;;;4842987;29;20038;-81
2021/01/21 09:25:03;;;;;;;31.60;20.35;;;205.70;1740.80;;;;;;4846273;29;20125;-82
2021/01/21 09:27:53;;;;;;;41.95;24.73;;;230.50;1715.20;;;;;;4844439;29;20030;-81
2021/01/21 09:30:20;;;;;;;38.30;24.98;;;230.70;1689.60;;;;;;4755707;30;20067;-81
2021/01/21 09:32:46;;;;;;;34.85;23.65;;;230.90;1689.60;;;;;;4754965;30;20043;-82
2021/01/21 09:35:13;;;;;;;35.00;23.17;;;231.20;1638.40;;;;;;4755540;30;20040;-81
2021/01/21 09:37:41;;;;;;;43.17;24.90;;;231.30;1612.80;;;;;;4756450;30;20103;-82
2021/01/21 09:40:12;;;;;;;37.60;25.52;;;256.10;1612.80;;;;;;4757492;30;20035;-82
2021/01/21 09:42:38;;;;;;;26.40;19.27;;;256.20;1587.20;;;;;;4757488;30;20040;-81
2021/01/21 09:45:05;;;;;;;27.02;20.52;;;256.30;1561.60;;;;;;4742525;30;20036;-82
2021/01/21 09:47:31;;;;;;;26.98;19.30;;;256.50;1561.60;;;;;;4742204;30;20047;-82
2021/01/21 09:49:56;;;;;;;27.73;19.08;;;256.80;1536.00;;;;;;4742397;30;20159;-82
2021/01/21 09:52:22;;;;;;;41.45;26.83;;;256.90;1510.40;;;;;;4741395;30;20127;-82
2021/01/21 09:54:48;;;;;;;36.00;23.02;;;281.70;1536.00;;;;;;4757667;30;20401;-82
2021/01/21 09:57:14;;;;;;;28.92;20.95;;;281.80;1536.00;;;;;;4741741;30;20028;-82
2021/01/21 09:59:39;;;;;;;31.80;22.98;;;281.80;1536.00;;;;;;4772742;30;20396;-82
2021/01/21 10:02:06;;;;;;;25.58;20.77;;;282.10;1510.40;;;;;;4769816;30;20076;-82
2021/01/21 10:04:32;;;;;;;24.95;19.40;;;282.30;1484.80;;;;;;4758088;30;20090;-82
2021/01/21 10:06:58;;;;;;;31.40;23.08;;;307.30;1484.80;;;;;;4786694;29;20037;-82
2021/01/21 10:09:23;;;;;;;28.60;20.02;;;307.70;1459.20;;;;;;4848049;29;20074;-82
2021/01/21 10:11:49;;;;;;;30.58;20.60;;;307.80;1433.60;;;;;;4843403;29;20123;-81
2021/01/21 10:14:15;;;;;;;43.08;27.50;;;308.10;1433.60;;;;;;4828662;29;20051;-81
2021/01/21 10:16:41;;;;;;;38.08;25.48;;;332.80;1459.20;;;;;;4828771;29;20483;-83
2021/01/21 10:19:09;;;;;;;38.85;26.85;;;332.80;1433.60;;;;;;4829725;29;20148;-82
2021/01/21 10:21:35;;;;;;;36.13;26.45;;;333.10;1433.60;;;;;;4828716;29;20035;-82
2021/01/21 10:24:01;;;;;;;30.20;20.17;;;333.20;1433.60;;;;;;4830955;29;20062;-82
2021/01/21 10:26:28;;;;;;;23.40;16.40;;;333.40;1382.40;;;;;;4828572;29;20079;-81
2021/01/21 10:28:54;;;;;;;25.80;18.55;;;358.40;1356.80;;;;;;4828928;29;20501;-81
2021/01/21 10:31:19;;;;;;;32.03;21.95;;;358.60;1331.20;;;;;;4829476;29;20101;-82
2021/01/21 10:33:45;;;;;;;35.13;25.15;;;358.60;1331.20;;;;;;4828933;29;20543;-80
2021/01/21 10:36:11;;;;;;;38.45;25.23;;;358.90;1331.20;;;;;;4828735;29;20026;-81
2021/01/21 10:38:39;;;;;;;29.45;21.98;;;359.10;1305.60;;;;;;4828596;29;20034;-81
2021/01/21 10:41:08;;;;;;;27.92;21.27;;;359.30;1280.00;;;;;;4834402;29;20125;-80
2021/01/21 10:43:34;;;;;;;23.48;18.38;;;384.20;1254.40;;;;;;4844643;29;20367;-81
2021/01/21 10:46:00;;;;;;;27.17;15.70;;;384.30;1254.40;;;;;;4842480;29;20074;-80
2021/01/21 10:48:27;;;;;;;26.33;17.58;;;384.30;1254.40;;;;;;4842195;29;20042;-81
2021/01/21 10:50:53;;;;;;;32.58;22.08;;;409.60;1254.40;;;;;;4842070;29;20022;-79
2021/01/21 10:53:19;;;;;;;32.75;23.40;;;409.70;1228.80;;;;;;4841853;29;20054;-79
2021/01/21 10:55:45;;;;;;;35.97;24.80;;;409.90;1228.80;;;;;;4841535;29;20550;-79
2021/01/21 10:58:12;;;;;;;26.38;19.20;;;410.20;1177.60;;;;;;4842873;29;20037;-81
2021/01/21 11:00:38;;;;;;;34.20;25.65;;;410.20;1177.60;;;;;;4841914;29;20037;-81
2021/01/21 11:03:04;;;;;;;34.60;20.67;;;410.10;1203.20;;;;;;4840985;29;20038;-79
2021/01/21 11:05:29;;;;;;;37.95;26.88;;;409.90;1203.20;;;;;;4841923;29;20057;-82
2021/01/21 11:07:55;;;;;;;38.15;26.20;;;410.50;1177.60;;;;;;4842631;29;20040;-79
2021/01/21 11:10:21;;;;;;;29.67;22.77;;;410.40;1177.60;;;;;;4842231;29;20036;-79
2021/01/21 11:12:50;;;;;;;26.70;20.65;;;410.30;1177.60;;;;;;4840757;29;20030;-80
2021/01/21 11:15:17;;;;;;;34.22;23.63;;;410.50;1177.60;;;;;;4841237;29;20525;-81
2021/01/21 11:17:46;;;;;;;28.58;21.85;;;410.10;1203.20;;;;;;4836385;29;20042;-82
2021/01/21 11:20:13;;;;;;;34.35;23.92;;;435.20;1177.60;;;;;;4824273;29;20101;-80
2021/01/21 11:22:40;;;;;;;28.90;21.75;;;435.40;1152.00;;;;;;4825348;29;20022;-80
2021/01/21 11:25:08;;;;;;;28.60;21.67;;;435.50;1152.00;;;;;;4840250;29;20026;-80
2021/01/21 11:27:35;;;;;;;24.48;19.48;;;435.60;1152.00;;;;;;4841234;29;20463;-80
2021/01/21 11:30:03;;;;;;;29.00;22.75;;;435.30;1152.00;;;;;;4841239;29;20058;-83
2021/01/21 11:32:28;;;;;;;27.98;20.90;;;435.70;1152.00;;;;;;4841657;29;20022;-85
2021/01/21 11:34:54;;;;;;;26.70;19.48;;;435.70;1126.40;;;;;;4842018;29;20081;-83
2021/01/21 11:37:20;;;;;;;24.88;19.30;;;435.90;1100.80;;;;;;4842325;29;20034;-84
2021/01/21 11:39:46;;;;;;;26.35;18.48;;;435.90;1126.40;;;;;;4842225;29;20058;-84
2021/01/21 11:42:11;;;;;;;31.42;19.13;;;436.10;1100.80;;;;;;4841280;29;20494;-83
2021/01/21 11:44:37;;;;;;;30.67;22.35;;;436.00;1100.80;;;;;;4841943;29;20076;-84
2021/01/21 11:47:03;;;;;;;26.80;20.70;;;461.00;1126.40;;;;;;4841250;29;20136;-82
2021/01/21 11:49:28;;;;;;;28.83;23.13;;;461.00;1100.80;;;;;;4840619;29;20497;-80
2021/01/21 11:51:55;;;;;;;33.72;24.52;;;460.90;1100.80;;;;;;4839387;29;20026;-80
2021/01/21 11:54:21;;;;;;;29.65;19.73;;;460.80;1126.40;;;;;;4840753;29;20025;-79
2021/01/21 11:56:48;;;;;;;27.35;19.75;;;436.10;1100.80;;;;;;4841628;29;20818;-79
2021/01/21 11:59:13;;;;;;;23.42;18.02;;;460.80;1126.40;;;;;;4840774;29;20033;-79
2021/01/21 12:01:41;;;;;;;20.38;16.90;;;461.00;1126.40;;;;;;4840326;29;20038;-79
2021/01/21 12:04:07;;;;;;;22.35;16.85;;;436.10;1100.80;;;;;;4839900;29;20042;-84
2021/01/21 12:06:32;;;;;;;22.85;17.70;;;461.10;1126.40;;;;;;4840729;29;20102;-83
2021/01/21 12:08:58;;;;;;;28.67;20.75;;;460.90;1100.80;;;;;;4840428;29;20037;-82
2021/01/21 12:11:24;;;;;;;23.70;17.92;;;461.00;1126.40;;;;;;4840944;29;20030;-83